createdAt,value
2022-11-24T00:00:18.732Z,6.83
2022-11-24T00:02:45.133Z,6.76
2022-11-24T00:05:11.757Z,6.87
2022-11-24T00:07:38.182Z,6.91
2022-11-24T00:10:05.091Z,6.85
2022-11-24T00:12:31.391Z,6.71
2022-11-24T00:14:57.721Z,6.75
2022-11-24T00:17:24.431Z,6.67
2022-11-24T00:19:50.772Z,6.69
2022-11-24T00:22:17.251Z,6.70
2022-11-24T00:24:43.573Z,6.72
2022-11-24T00:27:09.885Z,6.82
2022-11-24T00:29:36.183Z,6.72
2022-11-24T00:32:02.641Z,6.78
2022-11-24T00:34:28.930Z,6.78
2022-11-24T00:36:55.314Z,6.71
2022-11-24T00:39:21.678Z,6.80
2022-11-24T00:41:48.292Z,7.16
2022-11-24T00:44:14.726Z,7.01
2022-11-24T00:46:41.226Z,7.09
2022-11-24T00:49:07.861Z,7.20
2022-11-24T00:51:34.242Z,7.30
2022-11-24T00:54:01.293Z,7.37
2022-11-24T00:56:29.531Z,7.53
2022-11-24T00:58:56.193Z,7.26
2022-11-24T01:01:25.102Z,7.08
2022-11-24T01:03:51.967Z,7.09
2022-11-24T01:06:24.024Z,7.21
2022-11-24T01:08:50.638Z,7.10
2022-11-24T01:11:23.285Z,7.00
2022-11-24T01:13:53.261Z,6.95
2022-11-24T01:16:31.316Z,6.98
2022-11-24T01:18:57.795Z,6.97
2022-11-24T01:21:24.550Z,6.89
2022-11-24T01:23:50.991Z,6.82
2022-11-24T01:26:20.415Z,7.24
2022-11-24T01:28:47.926Z,7.20
2022-11-24T01:31:15.410Z,7.09
2022-11-24T01:33:42.299Z,7.05
2022-11-24T01:36:08.665Z,7.18
2022-11-24T01:38:35.119Z,7.25
2022-11-24T01:41:10.118Z,7.14
2022-11-24T01:43:36.811Z,7.10
2022-11-24T01:46:32.420Z,7.21
2022-11-24T01:49:16.352Z,7.18
2022-11-24T01:51:53.522Z,7.09
2022-11-24T01:54:29.374Z,7.29
2022-11-24T01:57:02.252Z,7.50
2022-11-24T01:59:28.841Z,7.41
2022-11-24T02:01:57.050Z,7.44
2022-11-24T02:04:27.570Z,7.37
2022-11-24T02:06:56.157Z,7.37
2022-11-24T02:09:40.203Z,7.40
2022-11-24T02:12:07.043Z,7.49
2022-11-24T02:14:37.366Z,7.49
2022-11-24T02:17:04.004Z,7.37
2022-11-24T02:19:58.586Z,7.36
2022-11-24T02:22:36.146Z,7.42
2022-11-24T02:25:29.978Z,7.38
2022-11-24T02:27:59.042Z,7.34
2022-11-24T02:30:25.435Z,7.32
2022-11-24T02:32:52.872Z,7.38
2022-11-24T02:35:20.060Z,7.29
2022-11-24T02:37:46.703Z,7.29
2022-11-24T02:40:16.145Z,7.36
2022-11-24T02:42:45.823Z,7.39
2022-11-24T02:45:15.502Z,7.39
2022-11-24T02:47:41.893Z,7.42
2022-11-24T02:50:08.537Z,7.42
2022-11-24T02:52:35.234Z,7.46
2022-11-24T02:55:01.594Z,7.46
2022-11-24T02:57:27.965Z,7.45
2022-11-24T02:59:54.528Z,7.45
2022-11-24T03:02:20.984Z,7.47
2022-11-24T03:04:47.463Z,7.44
2022-11-24T03:07:13.804Z,7.45
2022-11-24T03:09:40.403Z,7.39
2022-11-24T03:12:07.115Z,7.43
2022-11-24T03:14:33.664Z,7.41
2022-11-24T03:17:00.319Z,7.44
2022-11-24T03:19:26.833Z,7.53
2022-11-24T03:21:53.256Z,7.71
2022-11-24T03:24:19.557Z,7.60
2022-11-24T03:26:45.895Z,7.58
2022-11-24T03:29:12.286Z,7.52
2022-11-24T03:31:38.687Z,7.60
2022-11-24T03:34:05.117Z,7.61
2022-11-24T03:36:34.194Z,7.53
2022-11-24T03:39:00.862Z,7.56
2022-11-24T03:41:27.188Z,7.56
2022-11-24T03:43:53.552Z,7.59
2022-11-24T03:46:19.933Z,7.73
2022-11-24T03:48:46.304Z,7.89
2022-11-24T03:51:12.803Z,7.79
2022-11-24T03:53:39.117Z,7.71
2022-11-24T03:56:05.613Z,7.77
2022-11-24T03:58:32.229Z,7.78
2022-11-24T04:00:58.708Z,7.75
2022-11-24T04:03:25.373Z,7.75
2022-11-24T04:05:51.753Z,7.76
2022-11-24T04:08:18.479Z,7.85
2022-11-24T04:10:45.159Z,7.83
2022-11-24T04:13:16.418Z,7.80
2022-11-24T04:15:43.635Z,7.77
2022-11-24T04:18:11.731Z,7.80
2022-11-24T04:20:39.314Z,7.79
2022-11-24T04:23:06.159Z,7.77
2022-11-24T04:25:32.555Z,7.80
2022-11-24T04:27:58.990Z,7.77
2022-11-24T04:30:27.371Z,7.78
2022-11-24T04:32:54.246Z,7.82
2022-11-24T04:35:21.126Z,7.75
2022-11-24T04:37:47.704Z,7.90
2022-11-24T04:40:14.823Z,7.85
2022-11-24T04:42:41.201Z,7.74
2022-11-24T04:45:07.953Z,7.75
2022-11-24T04:47:34.455Z,7.69
2022-11-24T04:50:00.754Z,7.61
2022-11-24T04:52:27.227Z,7.77
2022-11-24T04:54:53.590Z,7.71
2022-11-24T04:57:22.083Z,7.58
2022-11-24T04:59:49.781Z,7.50
2022-11-24T05:02:16.313Z,7.48
2022-11-24T05:04:43.103Z,7.42
2022-11-24T05:07:18.419Z,7.48
2022-11-24T05:09:58.917Z,7.51
2022-11-24T05:12:27.703Z,7.76
2022-11-24T05:14:54.064Z,7.87
2022-11-24T05:17:20.475Z,7.94
2022-11-24T05:19:46.744Z,7.84
2022-11-24T05:22:13.081Z,7.87
2022-11-24T05:24:39.695Z,7.89
2022-11-24T05:27:06.404Z,7.94
2022-11-24T05:29:33.005Z,8.01
2022-11-24T05:31:59.349Z,8.20
2022-11-24T05:34:26.304Z,8.21
2022-11-24T05:36:52.669Z,8.05
2022-11-24T05:39:19.872Z,8.02
2022-11-24T05:41:46.583Z,7.97
2022-11-24T05:44:13.130Z,7.90
2022-11-24T05:46:39.625Z,7.88
2022-11-24T05:49:05.953Z,7.87
2022-11-24T05:51:32.285Z,7.96
2022-11-24T05:53:58.697Z,7.99
2022-11-24T05:56:25.085Z,8.03
2022-11-24T05:58:51.431Z,8.19
2022-11-24T06:01:18.045Z,8.09
2022-11-24T06:03:44.516Z,8.08
2022-11-24T06:06:11.016Z,8.01
2022-11-24T06:08:37.364Z,7.97
2022-11-24T06:11:04.059Z,8.04
2022-11-24T06:13:30.415Z,8.02
2022-11-24T06:15:59.444Z,7.97
2022-11-24T06:18:25.864Z,8.03
2022-11-24T06:21:09.915Z,8.09
2022-11-24T06:23:39.054Z,8.09
2022-11-24T06:26:06.405Z,8.09
2022-11-24T06:28:32.989Z,8.27
2022-11-24T06:31:03.933Z,8.78
2022-11-24T06:33:34.723Z,8.63
2022-11-24T06:36:03.398Z,8.70
2022-11-24T06:38:30.274Z,8.56
2022-11-24T06:41:27.022Z,8.68
2022-11-24T06:43:53.732Z,8.87
2022-11-24T06:46:20.669Z,9.04
2022-11-24T06:48:47.346Z,8.78
2022-11-24T06:51:13.889Z,8.87
2022-11-24T06:53:41.435Z,8.94
2022-11-24T06:56:16.389Z,9.17
2022-11-24T06:58:44.463Z,8.94
2022-11-24T07:01:20.186Z,8.80
2022-11-24T07:03:48.294Z,8.75
2022-11-24T07:06:15.834Z,8.70
2022-11-24T07:08:42.195Z,8.73
2022-11-24T07:11:11.457Z,8.65
2022-11-24T07:13:38.728Z,8.64
2022-11-24T07:16:20.534Z,8.71
2022-11-24T07:18:48.533Z,8.70
2022-11-24T07:21:15.502Z,8.87
2022-11-24T07:23:42.255Z,8.73
2022-11-24T07:26:10.047Z,8.89
2022-11-24T07:28:37.090Z,8.85
2022-11-24T07:31:11.391Z,8.81
2022-11-24T07:33:38.120Z,8.89
2022-11-24T07:36:07.137Z,8.86
2022-11-24T07:38:33.686Z,8.70
2022-11-24T07:41:05.427Z,8.76
2022-11-24T07:43:36.962Z,8.74
2022-11-24T07:46:05.086Z,8.83
2022-11-24T07:48:31.649Z,8.91
2022-11-24T07:51:02.324Z,8.91
2022-11-24T07:53:28.654Z,8.94
2022-11-24T07:55:56.961Z,8.91
2022-11-24T07:58:24.737Z,9.25
2022-11-24T08:00:53.277Z,9.25
2022-11-24T08:03:23.192Z,9.08
2022-11-24T08:08:47.215Z,9.55
2022-11-24T08:11:18.263Z,9.37
2022-11-24T08:13:45.061Z,9.36
2022-11-24T08:16:13.698Z,9.76
2022-11-24T08:18:41.077Z,9.88
2022-11-24T08:21:11.936Z,10.21
2022-11-24T08:23:38.925Z,9.86
2022-11-24T08:26:12.009Z,10.10
2022-11-24T08:28:38.456Z,10.15
2022-11-24T08:31:08.429Z,10.20
2022-11-24T08:33:35.685Z,10.32
2022-11-24T08:36:07.741Z,9.98
2022-11-24T08:38:34.591Z,9.80
2022-11-24T08:41:03.895Z,9.67
2022-11-24T08:43:31.214Z,9.89
2022-11-24T08:46:06.619Z,9.64
2022-11-24T08:48:33.509Z,9.71
2022-11-24T08:51:10.054Z,9.77
2022-11-24T08:53:36.516Z,9.85
2022-11-24T08:56:08.626Z,10.50
2022-11-24T08:58:36.229Z,10.80
2022-11-24T09:01:16.686Z,10.65
2022-11-24T09:03:49.932Z,10.29
2022-11-24T09:06:25.617Z,10.34
2022-11-24T09:08:55.305Z,10.33
2022-11-24T09:11:22.397Z,10.50
2022-11-24T09:13:49.139Z,10.38
2022-11-24T09:16:18.588Z,10.55
2022-11-24T09:18:45.801Z,10.52
2022-11-24T09:21:21.223Z,10.45
2022-11-24T09:23:48.717Z,10.62
2022-11-24T09:26:27.330Z,10.56
2022-11-24T09:28:55.409Z,10.60
2022-11-24T09:31:27.628Z,10.53
2022-11-24T09:33:54.861Z,10.44
2022-11-24T09:36:22.233Z,10.43
2022-11-24T09:38:48.584Z,10.42
2022-11-24T09:41:14.928Z,10.48
2022-11-24T09:43:50.173Z,10.95
2022-11-24T09:46:40.337Z,10.59
2022-11-24T09:49:15.319Z,10.83
2022-11-24T09:51:48.283Z,10.61
2022-11-24T09:54:22.915Z,10.92
2022-11-24T09:56:49.869Z,10.88
2022-11-24T09:59:19.947Z,10.85
2022-11-24T10:01:48.386Z,11.44
2022-11-24T10:04:25.394Z,11.38
2022-11-24T10:07:22.900Z,11.21
2022-11-24T10:10:13.751Z,11.33
2022-11-24T10:13:05.122Z,11.37
2022-11-24T10:15:46.483Z,11.67
2022-11-24T10:18:22.497Z,11.53
2022-11-24T10:21:01.154Z,11.67
2022-11-24T10:23:44.063Z,11.40
2022-11-24T10:26:31.354Z,11.18
2022-11-24T10:28:57.739Z,11.05
2022-11-24T10:31:38.189Z,11.31
2022-11-24T10:34:33.580Z,10.94
2022-11-24T10:37:12.223Z,10.86
2022-11-24T10:39:58.559Z,10.98
2022-11-24T10:42:32.249Z,11.02
2022-11-24T10:45:10.954Z,10.93
2022-11-24T10:47:38.254Z,10.70
2022-11-24T10:50:18.876Z,11.04
2022-11-24T10:52:51.178Z,11.08
2022-11-24T10:55:17.724Z,11.28
2022-11-24T10:57:44.196Z,11.17
2022-11-24T11:00:19.807Z,11.17
2022-11-24T11:02:51.664Z,11.21
2022-11-24T11:05:38.485Z,11.23
2022-11-24T11:08:13.829Z,11.64
2022-11-24T11:10:42.327Z,11.54
2022-11-24T11:13:23.313Z,11.52
2022-11-24T11:15:50.174Z,11.48
2022-11-24T11:18:18.539Z,11.75
2022-11-24T11:20:57.005Z,11.44
2022-11-24T11:23:30.192Z,11.76
2022-11-24T11:26:18.927Z,11.56
2022-11-24T11:35:02.985Z,12.03
2022-11-24T11:37:32.737Z,11.58
2022-11-24T11:40:00.372Z,11.31
2022-11-24T11:43:00.905Z,11.65
2022-11-24T11:45:31.611Z,11.72
2022-11-24T11:48:05.613Z,11.52
2022-11-24T11:51:14.870Z,11.69
2022-11-24T11:53:37.168Z,11.49
2022-11-24T11:56:21.016Z,11.21
2022-11-24T11:58:47.285Z,11.28
2022-11-24T12:01:44.372Z,11.08
2022-11-24T12:04:31.995Z,10.92
2022-11-24T12:07:37.687Z,10.82
2022-11-24T12:10:24.256Z,10.76
2022-11-24T12:13:09.267Z,10.78
2022-11-24T12:15:57.700Z,11.01
2022-11-24T12:18:57.765Z,11.36
2022-11-24T12:22:03.352Z,11.32
2022-11-24T12:24:35.699Z,11.40
2022-11-24T12:27:20.942Z,11.57
2022-11-24T12:30:02.542Z,11.75
2022-11-24T12:32:56.005Z,12.03
2022-11-24T12:35:25.576Z,11.98
2022-11-24T12:38:09.185Z,12.16
2022-11-24T12:41:01.963Z,12.70
2022-11-24T12:43:40.416Z,13.10
2022-11-24T12:46:20.437Z,13.47
2022-11-24T12:49:15.447Z,13.50
2022-11-24T12:51:46.592Z,13.65
2022-11-24T12:54:15.781Z,14.45
2022-11-24T12:56:58.834Z,14.49
2022-11-24T12:59:31.171Z,14.51
2022-11-24T13:02:28.835Z,14.50
2022-11-24T13:05:13.044Z,14.12
2022-11-24T13:07:45.216Z,13.58
2022-11-24T13:10:46.547Z,13.23
2022-11-24T13:13:12.295Z,13.09
2022-11-24T13:18:52.962Z,12.24
2022-11-24T13:21:47.747Z,12.11
2022-11-24T13:24:17.651Z,12.03
2022-11-24T13:26:47.646Z,11.94
2022-11-24T13:29:28.944Z,12.17
2022-11-24T13:32:15.847Z,11.81
2022-11-24T13:34:42.112Z,12.08
2022-11-24T13:37:31.962Z,11.98
2022-11-24T13:40:01.885Z,11.74
2022-11-24T13:42:42.268Z,11.64
2022-11-24T13:45:39.328Z,11.62
2022-11-24T13:48:21.854Z,11.39
2022-11-24T13:50:52.036Z,11.72
2022-11-24T13:53:40.686Z,11.46
2022-11-24T13:56:23.766Z,11.49
2022-11-24T13:58:59.918Z,11.45
2022-11-24T14:01:28.862Z,11.60
2022-11-24T14:04:33.125Z,11.40
2022-11-24T14:07:09.031Z,11.22
2022-11-24T14:09:47.544Z,11.44
2022-11-24T14:12:15.903Z,11.31
2022-11-24T14:14:43.416Z,11.39
2022-11-24T14:17:28.798Z,11.34
2022-11-24T14:19:57.013Z,11.21
2022-11-24T14:22:31.405Z,11.00
2022-11-24T14:24:59.788Z,10.87
2022-11-24T14:27:37.659Z,11.16
2022-11-24T14:30:20.065Z,10.94
2022-11-24T14:33:02.477Z,11.07
2022-11-24T14:35:31.966Z,10.85
2022-11-24T14:38:00.996Z,10.79
2022-11-24T14:40:46.484Z,10.69
2022-11-24T14:43:30.942Z,10.95
2022-11-24T14:46:09.388Z,10.76
2022-11-24T14:48:37.898Z,10.80
2022-11-24T14:51:08.674Z,10.58
2022-11-24T14:53:35.599Z,10.50
2022-11-24T14:56:24.150Z,10.46
2022-11-24T14:58:50.638Z,10.37
2022-11-24T15:01:22.195Z,10.31
2022-11-24T15:04:17.878Z,10.33
2022-11-24T15:07:24.288Z,10.38
2022-11-24T15:09:53.822Z,10.34
2022-11-24T15:12:28.253Z,10.29
2022-11-24T15:15:14.916Z,10.43
2022-11-24T15:17:49.302Z,10.30
2022-11-24T15:20:45.682Z,10.29
2022-11-24T15:23:17.974Z,10.57
2022-11-24T15:25:45.075Z,10.48
2022-11-24T15:28:11.631Z,10.30
2022-11-24T15:30:38.609Z,10.20
2022-11-24T15:33:14.115Z,10.09
2022-11-24T15:35:40.332Z,10.06
2022-11-24T15:38:06.852Z,10.19
2022-11-24T15:40:33.418Z,10.27
2022-11-24T15:43:05.037Z,10.54
2022-11-24T15:45:34.309Z,10.38
2022-11-24T15:48:00.695Z,10.31
2022-11-24T15:50:27.017Z,10.29
2022-11-24T15:52:53.705Z,10.08
2022-11-24T15:55:21.964Z,10.19
2022-11-24T15:57:48.700Z,10.13
2022-11-24T16:00:17.046Z,10.02
2022-11-24T16:02:43.453Z,9.97
2022-11-24T16:05:11.531Z,10.08
2022-11-24T16:07:38.301Z,9.94
2022-11-24T16:10:07.316Z,9.89
2022-11-24T16:12:33.631Z,10.00
2022-11-24T16:14:59.927Z,10.20
2022-11-24T16:17:26.788Z,9.99
2022-11-24T16:20:00.213Z,10.05
2022-11-24T16:22:27.258Z,9.80
2022-11-24T16:24:53.589Z,9.69
2022-11-24T16:27:19.880Z,9.75
2022-11-24T16:29:46.386Z,9.66
2022-11-24T16:32:12.754Z,9.84
2022-11-24T16:34:39.594Z,9.84
2022-11-24T16:37:05.922Z,10.14
2022-11-24T16:39:32.299Z,10.22
2022-11-24T16:41:58.631Z,10.21
2022-11-24T16:44:25.008Z,9.99
2022-11-24T16:46:51.380Z,9.96
2022-11-24T16:49:17.873Z,9.77
2022-11-24T16:51:44.296Z,9.67
2022-11-24T16:54:10.602Z,9.61
2022-11-24T16:56:37.173Z,9.58
2022-11-24T16:59:03.633Z,9.61
2022-11-24T17:01:30.160Z,9.91
2022-11-24T17:03:56.540Z,9.97
2022-11-24T17:06:23.108Z,9.75
2022-11-24T17:08:49.503Z,9.92
2022-11-24T17:11:18.606Z,9.80
2022-11-24T17:13:45.948Z,9.70
2022-11-24T17:16:17.741Z,9.69
2022-11-24T17:18:44.815Z,9.60
2022-11-24T17:21:17.274Z,9.69
2022-11-24T17:23:44.363Z,9.62
2022-11-24T17:26:13.418Z,9.54
2022-11-24T17:28:40.264Z,9.40
2022-11-24T17:31:30.656Z,9.37
2022-11-24T17:33:58.203Z,9.27
2022-11-24T17:36:25.554Z,9.15
2022-11-24T17:38:52.645Z,9.16
2022-11-24T17:41:20.233Z,9.15
2022-11-24T17:43:54.882Z,9.15
2022-11-24T17:46:21.643Z,9.10
2022-11-24T17:48:48.026Z,9.07
2022-11-24T17:51:19.633Z,9.07
2022-11-24T17:53:48.250Z,9.06
2022-11-24T17:56:20.013Z,9.07
2022-11-24T17:58:46.680Z,9.00
2022-11-24T18:01:13.937Z,8.95
2022-11-24T18:03:41.286Z,8.95
2022-11-24T18:06:12.920Z,8.93
2022-11-24T18:08:44.667Z,8.85
2022-11-24T18:11:13.727Z,8.80
2022-11-24T18:13:56.691Z,8.73
2022-11-24T18:16:26.593Z,8.62
2022-11-24T18:19:07.967Z,8.55
2022-11-24T18:21:35.137Z,8.48
2022-11-24T18:24:01.762Z,8.40
2022-11-24T18:26:28.099Z,8.34
2022-11-24T18:28:54.514Z,8.32
2022-11-24T18:31:20.895Z,8.21
2022-11-24T18:33:47.431Z,8.22
2022-11-24T18:36:17.375Z,8.19
2022-11-24T18:38:43.779Z,8.11
2022-11-24T18:41:11.802Z,8.02
2022-11-24T18:43:38.191Z,7.93
2022-11-24T18:46:12.023Z,7.81
2022-11-24T18:48:38.711Z,7.79
2022-11-24T18:51:05.331Z,7.65
2022-11-24T18:53:31.707Z,7.66
2022-11-24T18:55:59.034Z,7.52
2022-11-24T18:58:26.498Z,7.46
2022-11-24T19:00:54.480Z,7.43
2022-11-24T19:03:20.922Z,7.30
2022-11-24T19:05:47.334Z,7.28
2022-11-24T19:08:13.766Z,7.20
2022-11-24T19:10:40.334Z,7.17
2022-11-24T19:13:06.888Z,7.10
2022-11-24T19:15:34.773Z,7.07
2022-11-24T19:18:02.142Z,6.93
2022-11-24T19:20:28.836Z,6.89
2022-11-24T19:22:55.297Z,6.80
2022-11-24T19:25:21.725Z,6.76
2022-11-24T19:27:48.125Z,6.70
2022-11-24T19:30:16.534Z,6.64
2022-11-24T19:32:43.088Z,6.61
2022-11-24T19:35:09.608Z,6.52
2022-11-24T19:37:35.996Z,6.50
2022-11-24T19:40:02.906Z,6.49
2022-11-24T19:42:29.273Z,6.39
2022-11-24T19:44:56.726Z,6.30
2022-11-24T19:47:23.319Z,6.17
2022-11-24T19:49:49.613Z,6.22
2022-11-24T19:52:16.316Z,6.14
2022-11-24T19:54:42.729Z,6.14
2022-11-24T19:57:09.041Z,6.03
2022-11-24T19:59:35.460Z,6.20
2022-11-24T20:02:01.881Z,6.02
2022-11-24T20:04:28.584Z,6.02
2022-11-24T20:06:55.117Z,5.95
2022-11-24T20:09:21.457Z,5.88
2022-11-24T20:11:48.136Z,5.80
2022-11-24T20:14:16.290Z,5.74
2022-11-24T20:16:42.710Z,5.64
2022-11-24T20:19:13.625Z,5.64
2022-11-24T20:21:41.244Z,5.61
2022-11-24T20:24:13.513Z,5.55
2022-11-24T20:26:52.443Z,5.47
2022-11-24T20:29:19.291Z,5.46
2022-11-24T20:31:49.277Z,5.38
2022-11-24T20:34:16.263Z,5.35
2022-11-24T20:36:45.078Z,5.31
2022-11-24T20:39:16.805Z,5.37
2022-11-24T20:41:43.946Z,5.40
2022-11-24T20:44:13.614Z,5.28
2022-11-24T20:46:41.486Z,5.25
2022-11-24T20:49:10.796Z,5.20
2022-11-24T20:51:38.963Z,5.11
2022-11-24T20:54:08.228Z,5.11
2022-11-24T20:56:37.935Z,5.09
2022-11-24T20:59:04.561Z,5.03
2022-11-24T21:01:34.493Z,4.99
2022-11-24T21:04:02.479Z,4.89
2022-11-24T21:06:29.269Z,4.83
2022-11-24T21:09:02.029Z,4.83
2022-11-24T21:11:30.355Z,4.77
2022-11-24T21:13:58.445Z,4.69
2022-11-24T21:16:27.664Z,4.64
2022-11-24T21:19:03.391Z,4.58
2022-11-24T21:21:32.113Z,4.59
2022-11-24T21:23:58.872Z,4.45
2022-11-24T21:26:25.589Z,4.51
2022-11-24T21:28:51.973Z,4.49
2022-11-24T21:31:21.031Z,4.43
2022-11-24T21:33:49.795Z,4.37
2022-11-24T21:36:18.975Z,4.33
2022-11-24T21:38:54.064Z,4.33
2022-11-24T21:41:21.275Z,4.28
2022-11-24T21:43:47.949Z,4.23
2022-11-24T21:46:14.703Z,4.19
2022-11-24T21:48:42.036Z,4.17
2022-11-24T21:51:12.799Z,4.16
2022-11-24T21:53:39.512Z,4.14
2022-11-24T21:56:11.650Z,4.15
2022-11-24T21:58:38.772Z,4.08
2022-11-24T22:01:07.999Z,4.05
2022-11-24T22:03:34.878Z,4.08
2022-11-24T22:06:02.019Z,4.08
2022-11-24T22:08:30.102Z,4.02
2022-11-24T22:11:23.488Z,3.98
2022-11-24T22:13:50.813Z,3.95
2022-11-24T22:16:22.799Z,3.85
2022-11-24T22:18:50.333Z,3.90
2022-11-24T22:21:19.527Z,3.88
2022-11-24T22:23:46.225Z,3.85
2022-11-24T22:26:15.899Z,3.81
2022-11-24T22:28:43.868Z,3.77
2022-11-24T22:31:15.544Z,3.74
2022-11-24T22:33:42.015Z,3.70
2022-11-24T22:36:10.053Z,3.70
2022-11-24T22:38:36.991Z,3.69
2022-11-24T22:41:12.168Z,3.66
2022-11-24T22:43:40.332Z,3.57
2022-11-24T22:46:17.788Z,3.51
2022-11-24T22:48:45.596Z,3.49
2022-11-24T22:51:23.681Z,3.46
2022-11-24T22:54:01.339Z,3.40
2022-11-24T22:56:28.377Z,3.35
2022-11-24T22:58:54.812Z,3.35
2022-11-24T23:01:24.881Z,3.30
2022-11-24T23:03:52.634Z,3.32
2022-11-24T23:06:21.799Z,3.30
2022-11-24T23:08:48.974Z,3.26
2022-11-24T23:11:18.815Z,3.18
2022-11-24T23:13:46.017Z,3.28
2022-11-24T23:16:17.839Z,3.24
2022-11-24T23:18:48.765Z,3.17
2022-11-24T23:21:20.064Z,3.14
2022-11-24T23:23:47.705Z,3.10
2022-11-24T23:26:17.124Z,3.04
2022-11-24T23:28:43.954Z,3.01
2022-11-24T23:31:13.394Z,2.98
2022-11-24T23:33:40.417Z,2.97
2022-11-24T23:36:10.402Z,2.97
2022-11-24T23:38:37.379Z,2.97
2022-11-24T23:41:06.838Z,2.97
2022-11-24T23:43:34.507Z,2.92
2022-11-24T23:46:12.986Z,2.90
2022-11-24T23:48:40.689Z,2.87
2022-11-24T23:51:17.005Z,2.81
2022-11-24T23:53:44.124Z,2.76
2022-11-24T23:56:12.477Z,2.73
2022-11-24T23:58:39.210Z,2.63
